Time;durP1;ratioP1;P1;durP2;ratioP2;P2;SDS_P1;SDS_P2;PMS_P1;PMS_P2;Temp;Humidity;BMP_temperature;BMP_pressure;BME280_temperature;BME280_humidity;BME280_pressure;Samples;Min_cycle;Max_cycle;Signal;HPM_P1;HPM_P2
2021/09/02 00:00:58;;;;;;;17.83;12.65;;;16.90;98.30;;;;;;5092900;28;20071;-55
2021/09/02 00:03:24;;;;;;;15.27;12.35;;;16.90;98.40;;;;;;5092095;28;20032;-50
2021/09/02 00:05:49;;;;;;;15.45;11.82;;;17.00;98.20;;;;;;5092010;28;20036;-52
2021/09/02 00:08:15;;;;;;;13.15;11.75;;;17.10;98.00;;;;;;5093119;28;20435;-50
2021/09/02 00:10:41;;;;;;;18.23;12.70;;;17.00;98.10;;;;;;5093910;28;20037;-53
2021/09/02 00:13:06;;;;;;;15.35;11.75;;;17.10;97.90;;;;;;5092474;28;20040;-54
2021/09/02 00:15:32;;;;;;;17.63;12.20;;;17.10;97.90;;;;;;5092012;28;20163;-52
2021/09/02 00:17:59;;;;;;;16.65;11.80;;;17.10;97.90;;;;;;5092316;28;20127;-50
2021/09/02 00:20:26;;;;;;;13.40;11.85;;;17.00;97.80;;;;;;5080896;28;20040;-54
2021/09/02 00:22:51;;;;;;;16.05;11.52;;;17.00;97.90;;;;;;5071424;28;20024;-53
2021/09/02 00:25:17;;;;;;;17.98;12.88;;;17.00;98.00;;;;;;5072096;28;20039;-55
2021/09/02 00:27:42;;;;;;;17.98;12.50;;;17.00;97.90;;;;;;5071696;28;20075;-51
2021/09/02 00:30:09;;;;;;;17.38;12.85;;;16.80;98.10;;;;;;5090135;28;20479;-52
2021/09/02 00:32:35;;;;;;;19.65;12.70;;;16.80;98.20;;;;;;5091834;28;20438;-53
2021/09/02 00:35:00;;;;;;;16.15;12.05;;;16.80;98.20;;;;;;5091305;28;20545;-54
2021/09/02 00:37:26;;;;;;;13.82;12.00;;;16.80;98.30;;;;;;5092088;28;20040;-52
2021/09/02 00:39:51;;;;;;;20.85;12.35;;;16.70;98.50;;;;;;5091556;28;20032;-54
2021/09/02 00:42:17;;;;;;;16.20;12.63;;;16.80;98.40;;;;;;5073665;28;20047;-55
2021/09/02 00:44:45;;;;;;;17.02;13.38;;;16.70;98.40;;;;;;5091701;28;20120;-50
2021/09/02 00:47:23;;;;;;;20.70;13.02;;;16.60;98.80;;;;;;5095337;28;20082;-52
2021/09/02 00:49:50;;;;;;;17.38;12.25;;;16.70;98.60;;;;;;5095992;28;20051;-52
2021/09/02 00:52:25;;;;;;;15.38;12.35;;;16.60;98.80;;;;;;5095753;28;20512;-56
2021/09/02 00:54:54;;;;;;;16.63;12.82;;;16.50;98.90;;;;;;5095337;28;20487;-52
2021/09/02 00:57:23;;;;;;;18.13;12.98;;;16.50;98.90;;;;;;5095758;28;20028;-56
2021/09/02 00:59:56;;;;;;;17.23;12.98;;;16.50;99.00;;;;;;5095310;28;20118;-55
2021/09/02 01:02:27;;;;;;;20.43;13.43;;;16.50;98.70;;;;;;5095190;28;20054;-55
2021/09/02 01:04:54;;;;;;;18.95;13.25;;;16.60;98.70;;;;;;5095658;28;20246;-53
2021/09/02 01:07:24;;;;;;;17.70;12.82;;;16.50;98.80;;;;;;5095541;28;20637;-51
2021/09/02 01:09:53;;;;;;;16.52;12.55;;;16.50;98.90;;;;;;5095448;28;20028;-55
2021/09/02 01:12:46;;;;;;;16.35;11.88;;;16.50;98.90;;;;;;5095529;28;20032;-53
2021/09/02 01:15:22;;;;;;;20.70;13.30;;;16.40;99.00;;;;;;5096764;28;20031;-51
2021/09/02 01:17:50;;;;;;;17.63;13.07;;;16.40;98.90;;;;;;5095505;28;20028;-50
2021/09/02 01:20:18;;;;;;;17.00;11.85;;;16.40;98.80;;;;;;5095428;28;20167;-53
2021/09/02 01:22:48;;;;;;;18.17;12.40;;;16.30;99.10;;;;;;5095027;28;20036;-55
2021/09/02 01:25:16;;;;;;;15.27;12.20;;;16.40;99.10;;;;;;5094771;28;20024;-52
2021/09/02 01:27:44;;;;;;;15.50;13.23;;;16.40;99.10;;;;;;5094948;28;20024;-50
2021/09/02 01:30:13;;;;;;;15.35;11.15;;;16.30;99.30;;;;;;5095185;28;20036;-53
2021/09/02 01:32:41;;;;;;;16.67;11.93;;;16.30;99.30;;;;;;5094554;28;20104;-56
2021/09/02 01:35:08;;;;;;;16.95;12.55;;;16.40;99.20;;;;;;5094935;28;20036;-56
2021/09/02 01:37:55;;;;;;;16.48;12.73;;;16.30;99.20;;;;;;5096268;28;20044;-55
2021/09/02 01:40:27;;;;;;;18.27;13.02;;;16.30;99.30;;;;;;5095675;28;20399;-54
2021/09/02 01:42:52;;;;;;;15.98;13.35;;;16.20;99.60;;;;;;5094537;28;20040;-51
2021/09/02 01:45:19;;;;;;;17.98;13.52;;;16.30;99.40;;;;;;5094675;28;20035;-54
2021/09/02 01:47:44;;;;;;;15.55;12.63;;;16.30;99.20;;;;;;5094947;28;20032;-51
2021/09/02 01:50:22;;;;;;;18.35;12.93;;;16.30;99.20;;;;;;5094903;28;20558;-54
2021/09/02 01:52:53;;;;;;;17.65;13.48;;;16.30;99.20;;;;;;5094224;28;20028;-52
2021/09/02 01:55:21;;;;;;;19.30;12.40;;;16.30;99.40;;;;;;5094660;28;20066;-52
2021/09/02 01:57:47;;;;;;;16.63;13.05;;;16.20;99.40;;;;;;5093241;28;20032;-53
2021/09/02 02:00:14;;;;;;;19.42;13.68;;;16.30;99.40;;;;;;5094136;28;20043;-55
2021/09/02 02:02:41;;;;;;;16.88;13.55;;;16.20;99.40;;;;;;5093937;28;20043;-54
2021/09/02 02:05:08;;;;;;;16.85;12.45;;;16.10;99.60;;;;;;5094175;28;20537;-54
2021/09/02 02:07:35;;;;;;;16.48;13.43;;;16.00;99.80;;;;;;5094318;28;20024;-52
2021/09/02 02:10:02;;;;;;;16.33;13.13;;;15.90;99.80;;;;;;5094375;28;20047;-53
2021/09/02 02:12:28;;;;;;;15.65;12.85;;;15.90;99.90;;;;;;5094029;28;20059;-53
2021/09/02 02:14:54;;;;;;;18.05;13.60;;;15.90;99.90;;;;;;5094337;28;20113;-55
2021/09/02 02:17:19;;;;;;;18.75;14.50;;;15.70;99.90;;;;;;5094433;28;20028;-52
2021/09/02 02:19:45;;;;;;;15.00;12.45;;;15.80;99.90;;;;;;5094026;28;20830;-53
2021/09/02 02:22:10;;;;;;;18.10;13.90;;;15.80;99.90;;;;;;5093834;28;20024;-55
2021/09/02 02:24:36;;;;;;;17.40;13.98;;;15.80;99.90;;;;;;5094107;28;20020;-52
2021/09/02 02:27:01;;;;;;;15.40;13.80;;;15.80;99.90;;;;;;5093759;28;20070;-52
2021/09/02 02:29:27;;;;;;;17.45;13.02;;;15.80;99.90;;;;;;5093677;28;20036;-51
2021/09/02 02:31:53;;;;;;;17.77;14.43;;;15.80;99.90;;;;;;5093579;28;20056;-54
2021/09/02 02:34:18;;;;;;;18.58;13.65;;;15.70;99.90;;;;;;5093664;28;20040;-51
2021/09/02 02:36:44;;;;;;;17.70;14.23;;;15.80;99.90;;;;;;5093787;28;20086;-52
2021/09/02 02:39:10;;;;;;;14.35;12.85;;;15.90;99.90;;;;;;5093802;28;20032;-51
2021/09/02 02:41:36;;;;;;;20.10;14.60;;;15.90;99.90;;;;;;5093142;28;20093;-50
2021/09/02 02:44:01;;;;;;;21.67;15.52;;;15.80;99.90;;;;;;5093482;28;20483;-53
2021/09/02 02:46:28;;;;;;;22.40;14.98;;;15.80;99.90;;;;;;5093614;28;20024;-54
2021/09/02 02:48:54;;;;;;;19.58;14.80;;;15.90;99.90;;;;;;5093166;28;20059;-55
2021/09/02 02:51:20;;;;;;;19.75;14.70;;;15.90;99.90;;;;;;5093510;28;20067;-56
2021/09/02 02:53:45;;;;;;;19.13;14.43;;;15.80;99.90;;;;;;5092882;28;20031;-54
2021/09/02 02:56:11;;;;;;;20.65;14.15;;;15.80;99.90;;;;;;5093412;28;20074;-55
2021/09/02 02:58:36;;;;;;;23.23;16.20;;;15.80;99.90;;;;;;5092435;28;20051;-55
2021/09/02 03:01:02;;;;;;;23.00;15.38;;;15.70;99.90;;;;;;5092428;28;20123;-55
2021/09/02 03:03:28;;;;;;;19.92;15.23;;;15.70;99.90;;;;;;5093343;28;20459;-55
2021/09/02 03:05:53;;;;;;;18.52;14.68;;;15.50;99.90;;;;;;5094299;28;20135;-51
2021/09/02 03:08:19;;;;;;;20.83;15.20;;;15.50;99.90;;;;;;5093456;28;20497;-52
2021/09/02 03:10:44;;;;;;;69.68;43.78;;;15.60;99.90;;;;;;5093315;28;20546;-52
2021/09/02 03:13:10;;;;;;;31.85;21.35;;;15.60;99.90;;;;;;5092629;28;20020;-50
2021/09/02 03:15:35;;;;;;;24.13;15.65;;;15.60;99.90;;;;;;5092868;28;20067;-55
2021/09/02 03:18:01;;;;;;;20.25;16.23;;;15.50;99.90;;;;;;5093413;28;20032;-54
2021/09/02 03:20:27;;;;;;;21.77;16.20;;;15.40;99.90;;;;;;5093144;28;20020;-53
2021/09/02 03:22:52;;;;;;;16.80;14.48;;;15.30;99.90;;;;;;5092202;28;20387;-51
2021/09/02 03:25:18;;;;;;;18.08;14.52;;;15.40;99.90;;;;;;5092520;28;20036;-51
2021/09/02 03:27:44;;;;;;;17.73;15.13;;;15.40;99.90;;;;;;5092477;28;20107;-55
2021/09/02 03:30:11;;;;;;;18.33;14.30;;;15.40;99.90;;;;;;5092517;28;20036;-54
2021/09/02 03:32:37;;;;;;;24.40;13.82;;;15.40;99.90;;;;;;5092469;28;20054;-52
2021/09/02 03:35:05;;;;;;;16.92;12.40;;;15.50;99.90;;;;;;5092216;28;20055;-50
2021/09/02 03:37:31;;;;;;;15.10;12.40;;;15.60;99.90;;;;;;5092470;28;20059;-52
2021/09/02 03:39:56;;;;;;;21.48;15.10;;;15.70;99.90;;;;;;5092374;28;20455;-53
2021/09/02 03:42:22;;;;;;;18.83;15.13;;;15.60;99.90;;;;;;5091613;28;20043;-51
2021/09/02 03:44:47;;;;;;;19.73;14.93;;;15.60;99.90;;;;;;5092208;28;20027;-52
2021/09/02 03:47:13;;;;;;;22.70;14.35;;;15.70;99.90;;;;;;5092373;28;20024;-50
2021/09/02 03:49:39;;;;;;;55.63;37.08;;;15.70;99.90;;;;;;5092842;28;20032;-52
2021/09/02 03:52:05;;;;;;;47.33;30.85;;;15.60;99.90;;;;;;5092017;28;20444;-52
2021/09/02 03:54:31;;;;;;;29.88;22.33;;;15.60;99.90;;;;;;5092126;28;20118;-54
2021/09/02 03:56:56;;;;;;;27.67;18.17;;;15.60;99.90;;;;;;5092355;28;20115;-53
2021/09/02 03:59:22;;;;;;;25.33;16.30;;;15.60;99.90;;;;;;5092060;28;20024;-54
2021/09/02 04:01:48;;;;;;;22.05;15.50;;;15.60;99.90;;;;;;5091933;28;20089;-52
2021/09/02 04:04:13;;;;;;;30.15;16.80;;;15.60;99.90;;;;;;5092037;28;20059;-53
2021/09/02 04:06:39;;;;;;;22.10;16.45;;;15.60;99.90;;;;;;5092107;28;20020;-54
2021/09/02 04:09:04;;;;;;;21.13;15.32;;;15.60;99.90;;;;;;5074233;28;20044;-56
2021/09/02 04:11:30;;;;;;;18.90;14.73;;;15.60;99.90;;;;;;5092262;28;20032;-55
2021/09/02 04:13:58;;;;;;;17.50;14.05;;;15.60;99.90;;;;;;5091689;28;20032;-53
2021/09/02 04:16:33;;;;;;;18.02;13.98;;;15.60;99.90;;;;;;5092080;28;20036;-52
2021/09/02 04:18:59;;;;;;;20.00;14.38;;;15.70;99.90;;;;;;5092031;28;20031;-52
2021/09/02 04:21:25;;;;;;;22.63;16.30;;;15.60;99.90;;;;;;5094611;28;20020;-54
2021/09/02 04:23:50;;;;;;;16.60;13.23;;;15.60;99.90;;;;;;5095829;28;20028;-52
2021/09/02 04:26:16;;;;;;;18.42;13.77;;;15.60;99.90;;;;;;5096394;28;20034;-50
2021/09/02 04:28:42;;;;;;;24.33;16.20;;;15.60;99.90;;;;;;5096049;28;20067;-52
2021/09/02 04:31:08;;;;;;;24.65;16.63;;;15.60;99.90;;;;;;5096942;28;20152;-57
2021/09/02 04:33:34;;;;;;;22.05;15.23;;;15.60;99.90;;;;;;5097650;28;20039;-56
2021/09/02 04:35:59;;;;;;;22.90;15.23;;;15.50;99.90;;;;;;5095772;28;20043;-55
2021/09/02 04:38:25;;;;;;;21.27;17.17;;;15.50;99.90;;;;;;5096050;28;20165;-55
2021/09/02 04:40:51;;;;;;;20.15;14.98;;;15.50;99.90;;;;;;5096138;28;20032;-53
2021/09/02 04:43:17;;;;;;;19.30;15.15;;;15.60;99.90;;;;;;5095397;28;20072;-55
2021/09/02 04:45:44;;;;;;;19.23;15.45;;;15.50;99.90;;;;;;5095771;28;20032;-52
2021/09/02 04:48:18;;;;;;;20.23;14.85;;;15.60;99.90;;;;;;5077490;28;20032;-58
2021/09/02 04:50:46;;;;;;;19.23;14.90;;;15.50;99.90;;;;;;5095594;28;20024;-53
2021/09/02 04:53:12;;;;;;;25.77;14.70;;;15.50;99.90;;;;;;5095605;28;20537;-54
2021/09/02 04:55:38;;;;;;;22.77;16.58;;;15.50;99.90;;;;;;5095595;28;20032;-52
2021/09/02 04:58:09;;;;;;;23.13;16.73;;;15.60;99.90;;;;;;5095408;28;20471;-54
2021/09/02 05:00:36;;;;;;;23.73;16.58;;;15.60;99.90;;;;;;5096014;28;20090;-55
2021/09/02 05:03:02;;;;;;;21.52;15.90;;;15.70;99.90;;;;;;5095472;28;20020;-56
2021/09/02 05:05:28;;;;;;;20.83;15.63;;;15.70;99.90;;;;;;5095266;28;20028;-56
2021/09/02 05:07:54;;;;;;;22.02;14.27;;;15.70;99.90;;;;;;5095585;28;20102;-55
2021/09/02 05:10:20;;;;;;;17.70;13.98;;;15.80;99.90;;;;;;5095351;28;20479;-55
2021/09/02 05:12:46;;;;;;;16.25;13.20;;;15.90;99.90;;;;;;5094813;28;20035;-56
2021/09/02 05:15:11;;;;;;;18.73;13.70;;;15.90;99.90;;;;;;5095403;28;20085;-53
2021/09/02 05:17:37;;;;;;;19.70;13.13;;;15.90;99.90;;;;;;5095766;28;20044;-55
2021/09/02 05:20:04;;;;;;;19.35;13.88;;;16.00;99.90;;;;;;5095458;28;20020;-50
2021/09/02 05:22:29;;;;;;;17.88;13.30;;;16.00;99.90;;;;;;5094818;28;20031;-55
2021/09/02 05:24:55;;;;;;;17.80;13.30;;;16.00;99.90;;;;;;5095288;28;20025;-51
2021/09/02 05:27:20;;;;;;;22.58;15.48;;;16.10;99.90;;;;;;5078087;28;20028;-52
2021/09/02 05:29:46;;;;;;;23.50;15.95;;;16.20;99.90;;;;;;5094945;28;20394;-51
2021/09/02 05:32:12;;;;;;;23.73;18.23;;;16.20;99.90;;;;;;5094161;28;20043;-54
2021/09/02 05:34:37;;;;;;;25.38;17.33;;;16.20;99.90;;;;;;5094745;28;20044;-54
2021/09/02 05:37:03;;;;;;;23.80;17.83;;;16.20;99.90;;;;;;5094676;28;20020;-54
2021/09/02 05:39:29;;;;;;;28.70;17.45;;;16.10;99.90;;;;;;5094854;28;20028;-56
2021/09/02 05:41:55;;;;;;;31.27;16.83;;;16.10;99.90;;;;;;5095053;28;20040;-56
2021/09/02 05:44:20;;;;;;;35.55;16.05;;;16.20;99.90;;;;;;5094678;28;20491;-52
2021/09/02 05:46:46;;;;;;;28.05;15.15;;;16.20;99.90;;;;;;5094872;28;20031;-51
2021/09/02 05:49:12;;;;;;;28.27;15.98;;;16.20;99.90;;;;;;5094969;28;20067;-54
2021/09/02 05:51:39;;;;;;;52.42;18.75;;;16.30;99.90;;;;;;5094496;28;20110;-49
2021/09/02 05:54:04;;;;;;;32.53;16.88;;;16.30;99.90;;;;;;5095865;28;20036;-53
2021/09/02 05:56:30;;;;;;;35.30;16.88;;;16.30;99.90;;;;;;5097905;28;20032;-53
2021/09/02 05:58:56;;;;;;;27.00;15.20;;;16.30;99.90;;;;;;5094609;28;20020;-56
2021/09/02 06:01:22;;;;;;;30.65;14.98;;;16.50;99.80;;;;;;5094688;28;20487;-57
2021/09/02 06:03:48;;;;;;;20.45;14.80;;;16.50;99.70;;;;;;5094076;28;20498;-55
2021/09/02 06:06:13;;;;;;;20.08;14.57;;;16.30;99.90;;;;;;5094225;28;20032;-54
2021/09/02 06:08:39;;;;;;;17.50;14.65;;;16.30;99.90;;;;;;5094376;28;20050;-55
2021/09/02 06:11:05;;;;;;;21.13;14.80;;;16.40;99.90;;;;;;5076002;28;20043;-54
2021/09/02 06:13:34;;;;;;;21.70;15.23;;;16.30;99.90;;;;;;5093677;28;20032;-52
2021/09/02 06:16:03;;;;;;;17.85;13.40;;;16.40;99.90;;;;;;5094291;28;20039;-52
2021/09/02 06:18:29;;;;;;;18.67;14.10;;;16.50;99.90;;;;;;5094080;28;20078;-53
2021/09/02 06:20:55;;;;;;;21.27;16.67;;;16.50;99.90;;;;;;5093687;28;20059;-51
2021/09/02 06:23:21;;;;;;;21.08;14.65;;;16.20;99.90;;;;;;5093609;28;20020;-51
2021/09/02 06:25:47;;;;;;;19.27;14.75;;;16.30;99.90;;;;;;5093737;28;20525;-53
2021/09/02 06:28:12;;;;;;;21.98;15.63;;;16.50;99.90;;;;;;5093598;28;20070;-54
2021/09/02 06:30:39;;;;;;;23.75;17.50;;;16.50;99.90;;;;;;5094490;28;20039;-57
2021/09/02 06:33:04;;;;;;;26.70;16.00;;;16.70;99.90;;;;;;5093365;28;20024;-56
2021/09/02 06:35:30;;;;;;;28.65;16.33;;;16.80;99.90;;;;;;5093436;28;20043;-52
2021/09/02 06:37:56;;;;;;;22.13;14.95;;;16.80;99.90;;;;;;5093771;28;20097;-55
2021/09/02 06:40:21;;;;;;;26.55;15.25;;;16.80;99.90;;;;;;5094041;28;20063;-54
2021/09/02 06:42:47;;;;;;;21.73;14.43;;;17.00;99.90;;;;;;5092711;28;20063;-54
2021/09/02 06:45:13;;;;;;;26.90;16.00;;;17.00;99.90;;;;;;5093736;28;20490;-54
2021/09/02 06:47:39;;;;;;;24.75;16.38;;;17.10;99.80;;;;;;5093927;28;20047;-52
2021/09/02 06:50:09;;;;;;;27.02;15.30;;;17.00;99.90;;;;;;5093720;28;20084;-55
2021/09/02 06:52:35;;;;;;;22.58;14.50;;;17.00;99.90;;;;;;5093481;28;20035;-52
2021/09/02 06:55:01;;;;;;;23.52;14.82;;;17.00;99.90;;;;;;5093366;28;20032;-55
2021/09/02 06:57:27;;;;;;;22.52;15.65;;;17.10;99.90;;;;;;5093636;28;20024;-52
2021/09/02 06:59:54;;;;;;;24.52;15.15;;;17.10;99.80;;;;;;5093263;28;20061;-56
2021/09/02 07:02:20;;;;;;;24.42;14.05;;;17.10;99.70;;;;;;5092787;28;20119;-56
2021/09/02 07:04:46;;;;;;;19.50;14.90;;;17.20;99.70;;;;;;5093323;28;20071;-53
2021/09/02 07:07:11;;;;;;;23.92;14.50;;;17.20;99.70;;;;;;5093312;28;20414;-54
2021/09/02 07:09:37;;;;;;;23.90;14.50;;;17.10;99.80;;;;;;5093075;28;20056;-56
2021/09/02 07:12:03;;;;;;;23.13;14.18;;;17.30;99.50;;;;;;5092716;28;20036;-52
2021/09/02 07:14:29;;;;;;;22.13;13.98;;;17.10;99.60;;;;;;5093011;28;20081;-50
2021/09/02 07:16:55;;;;;;;25.55;13.63;;;17.20;99.60;;;;;;5093347;28;20101;-56
2021/09/02 07:19:20;;;;;;;24.02;13.30;;;17.30;99.50;;;;;;5094506;28;20475;-54
2021/09/02 07:21:46;;;;;;;21.17;12.80;;;17.40;99.20;;;;;;5093480;28;20043;-49
2021/09/02 07:24:11;;;;;;;20.00;13.60;;;17.50;99.40;;;;;;5092809;28;20031;-55
2021/09/02 07:26:39;;;;;;;26.52;12.35;;;17.60;98.80;;;;;;5092785;28;20391;-54
2021/09/02 07:29:08;;;;;;;25.77;14.70;;;17.50;98.70;;;;;;5092836;28;20031;-53
2021/09/02 07:31:35;;;;;;;24.48;12.88;;;17.60;98.80;;;;;;5092946;28;20135;-53
2021/09/02 07:34:01;;;;;;;20.00;13.32;;;17.60;98.50;;;;;;5092980;28;20071;-54
2021/09/02 07:36:27;;;;;;;22.35;13.43;;;17.60;98.80;;;;;;5092781;28;20040;-55
2021/09/02 07:38:53;;;;;;;22.75;12.60;;;17.80;98.30;;;;;;5092895;28;20032;-54
2021/09/02 07:41:18;;;;;;;20.50;12.40;;;17.70;98.20;;;;;;5092911;28;20503;-55
2021/09/02 07:43:44;;;;;;;22.08;13.13;;;17.80;98.00;;;;;;5092541;28;20024;-54
2021/09/02 07:46:10;;;;;;;21.85;13.13;;;17.80;98.10;;;;;;5092649;28;20482;-55
2021/09/02 07:48:36;;;;;;;22.17;13.63;;;17.90;97.90;;;;;;5092231;28;20391;-52
2021/09/02 07:51:02;;;;;;;23.00;12.85;;;18.10;97.60;;;;;;5092994;28;20094;-52
2021/09/02 07:53:27;;;;;;;18.45;11.80;;;18.00;97.60;;;;;;5092340;28;20073;-55
2021/09/02 07:55:53;;;;;;;15.45;11.10;;;18.00;97.60;;;;;;5092307;28;20036;-54
2021/09/02 07:58:19;;;;;;;18.58;11.20;;;18.00;97.50;;;;;;5092147;28;20040;-52
2021/09/02 08:00:45;;;;;;;18.70;12.20;;;18.10;97.60;;;;;;5092322;28;20541;-53
2021/09/02 08:03:10;;;;;;;16.38;10.85;;;18.20;97.60;;;;;;5073770;28;20018;-54
2021/09/02 08:05:36;;;;;;;18.88;11.27;;;18.20;97.40;;;;;;5087132;28;20067;-54
2021/09/02 08:08:01;;;;;;;18.35;10.23;;;18.50;97.20;;;;;;5082532;28;20475;-49
2021/09/02 08:10:27;;;;;;;18.60;10.50;;;18.50;96.90;;;;;;5081223;28;20357;-53
2021/09/02 08:12:54;;;;;;;16.33;10.93;;;18.60;96.40;;;;;;5053409;28;20510;-55
2021/09/02 08:15:20;;;;;;;18.45;10.68;;;18.60;96.20;;;;;;5087498;28;20160;-54
2021/09/02 08:17:46;;;;;;;17.88;9.80;;;18.50;96.30;;;;;;5091635;28;20074;-54
2021/09/02 08:20:14;;;;;;;18.98;10.68;;;18.60;96.30;;;;;;5083170;28;20072;-53
2021/09/02 08:22:41;;;;;;;18.85;11.07;;;18.50;96.50;;;;;;5077921;28;20052;-55
2021/09/02 08:25:09;;;;;;;18.88;10.38;;;18.50;96.50;;;;;;5092004;28;20028;-57
2021/09/02 08:27:34;;;;;;;18.35;12.02;;;18.70;96.50;;;;;;5092515;28;20390;-54
2021/09/02 08:30:00;;;;;;;16.58;11.00;;;18.70;96.40;;;;;;5075026;28;20036;-54
2021/09/02 08:32:26;;;;;;;17.42;11.30;;;18.60;96.50;;;;;;5071239;28;20029;-51
2021/09/02 08:34:52;;;;;;;21.52;10.95;;;18.70;96.50;;;;;;5071846;28;20113;-51
2021/09/02 08:37:17;;;;;;;18.35;11.07;;;18.70;96.30;;;;;;5072159;28;20391;-54
2021/09/02 08:39:43;;;;;;;18.75;11.50;;;18.90;96.50;;;;;;5077465;28;20040;-50
2021/09/02 08:42:09;;;;;;;21.23;10.77;;;19.00;96.30;;;;;;5092515;28;20036;-52
2021/09/02 08:44:35;;;;;;;20.65;12.18;;;19.10;96.40;;;;;;5094038;28;20028;-51
2021/09/02 08:47:01;;;;;;;18.05;11.77;;;19.10;96.00;;;;;;5091832;28;20059;-51
2021/09/02 08:49:29;;;;;;;16.60;11.75;;;19.10;96.20;;;;;;5093232;28;20497;-52
2021/09/02 08:51:58;;;;;;;19.58;12.18;;;18.90;96.10;;;;;;5094304;28;20130;-51
2021/09/02 08:54:23;;;;;;;19.52;12.43;;;18.90;96.40;;;;;;5094348;28;20040;-52
2021/09/02 08:56:49;;;;;;;18.65;11.43;;;19.10;96.40;;;;;;5095178;28;20070;-54
2021/09/02 08:59:14;;;;;;;23.85;13.63;;;19.30;96.30;;;;;;5094710;28;20398;-56
2021/09/02 09:01:40;;;;;;;20.02;12.95;;;19.40;96.10;;;;;;5074414;28;20036;-57
2021/09/02 09:04:11;;;;;;;18.55;12.38;;;18.80;97.00;;;;;;5094280;28;20036;-57
2021/09/02 09:06:38;;;;;;;18.80;11.07;;;19.00;96.90;;;;;;5095322;28;20123;-51
2021/09/02 09:09:16;;;;;;;24.10;12.70;;;18.80;97.00;;;;;;5097399;28;20032;-54
2021/09/02 09:11:48;;;;;;;21.88;12.32;;;18.90;97.00;;;;;;5096028;28;20024;-55
2021/09/02 09:14:19;;;;;;;17.92;11.75;;;19.00;96.70;;;;;;5095549;28;20055;-55
2021/09/02 09:16:45;;;;;;;19.63;12.40;;;19.30;96.40;;;;;;5097223;28;20047;-53
2021/09/02 09:19:30;;;;;;;22.58;14.65;;;19.50;95.90;;;;;;5095632;28;20024;-51
2021/09/02 09:21:59;;;;;;;14.88;10.85;;;19.50;95.80;;;;;;5074924;28;20079;-56
2021/09/02 09:24:59;;;;;;;22.15;13.18;;;19.80;95.50;;;;;;5075647;28;20025;-51
2021/09/02 09:27:45;;;;;;;22.20;13.30;;;20.10;94.90;;;;;;5079713;28;20511;-52
2021/09/02 09:30:11;;;;;;;18.50;13.02;;;20.20;94.70;;;;;;5095026;28;20032;-56
2021/09/02 09:32:49;;;;;;;22.52;15.50;;;20.40;94.40;;;;;;5093485;28;20031;-56
2021/09/02 09:35:20;;;;;;;21.90;14.20;;;20.50;94.20;;;;;;5094820;28;20075;-55
2021/09/02 09:37:48;;;;;;;18.88;12.90;;;20.40;94.30;;;;;;5095950;28;20039;-52
2021/09/02 09:40:18;;;;;;;24.45;14.82;;;20.50;94.40;;;;;;5095531;28;20452;-54
2021/09/02 09:43:14;;;;;;;17.63;12.48;;;20.40;94.10;;;;;;5095097;28;20039;-53
2021/09/02 09:45:58;;;;;;;21.10;14.45;;;20.30;94.30;;;;;;5078318;28;20044;-54
2021/09/02 09:48:32;;;;;;;21.20;13.27;;;20.20;94.70;;;;;;5095882;28;20036;-54
2021/09/02 09:51:27;;;;;;;21.15;15.05;;;20.40;94.40;;;;;;5095797;28;20028;-54
2021/09/02 09:53:53;;;;;;;19.23;14.43;;;20.60;94.30;;;;;;5073676;28;20040;-60
2021/09/02 09:56:24;;;;;;;25.27;14.88;;;20.80;93.90;;;;;;5096055;28;20044;-54
2021/09/02 09:58:52;;;;;;;18.15;13.70;;;20.80;93.90;;;;;;5077160;28;20036;-56
2021/09/02 10:01:18;;;;;;;22.27;15.77;;;20.60;94.20;;;;;;5094855;28;20419;-54
2021/09/02 10:03:45;;;;;;;20.30;13.05;;;20.30;94.00;;;;;;5096786;28;20036;-56
2021/09/02 10:06:12;;;;;;;18.85;15.20;;;20.30;94.50;;;;;;5096223;28;20490;-57
2021/09/02 10:08:41;;;;;;;17.98;13.90;;;20.30;94.30;;;;;;5076275;28;20037;-53
2021/09/02 10:11:11;;;;;;;22.42;15.30;;;20.50;94.10;;;;;;5075161;28;20025;-55
2021/09/02 10:13:37;;;;;;;18.08;12.05;;;20.50;94.20;;;;;;5075313;28;20168;-51
2021/09/02 10:16:04;;;;;;;21.83;14.45;;;20.80;94.20;;;;;;5075094;28;20032;-51
2021/09/02 10:18:31;;;;;;;20.85;15.18;;;21.10;93.30;;;;;;5073759;28;20055;-56
2021/09/02 10:21:08;;;;;;;19.95;14.30;;;20.90;93.10;;;;;;5090575;28;20042;-56
2021/09/02 10:23:34;;;;;;;18.75;12.27;;;20.60;93.20;;;;;;5095064;28;20040;-53
2021/09/02 10:26:00;;;;;;;17.83;13.85;;;20.70;93.40;;;;;;5095902;28;20032;-56
2021/09/02 10:28:33;;;;;;;15.43;11.68;;;20.70;93.30;;;;;;5091973;28;20029;-56
2021/09/02 10:31:07;;;;;;;16.02;11.45;;;20.80;93.40;;;;;;5076260;28;20404;-52
2021/09/02 10:33:41;;;;;;;26.65;16.52;;;20.90;93.40;;;;;;5075943;28;20056;-57
2021/09/02 10:36:10;;;;;;;21.23;16.77;;;20.80;93.70;;;;;;5076032;28;20021;-54
2021/09/02 10:38:44;;;;;;;23.02;16.65;;;20.80;93.50;;;;;;5075062;28;20108;-50
2021/09/02 10:41:10;;;;;;;22.40;16.38;;;20.60;93.70;;;;;;5075303;28;20021;-52
2021/09/02 10:43:52;;;;;;;18.58;14.32;;;20.60;93.70;;;;;;5074316;28;20037;-55
2021/09/02 10:46:52;;;;;;;22.00;15.90;;;21.00;93.30;;;;;;5075903;28;20055;-56
2021/09/02 10:49:29;;;;;;;22.40;15.40;;;21.10;93.10;;;;;;5039673;28;20510;-57
2021/09/02 10:51:56;;;;;;;16.30;13.32;;;21.10;93.20;;;;;;5074167;28;20063;-57
2021/09/02 10:54:28;;;;;;;16.08;12.73;;;21.20;92.80;;;;;;5090175;28;20084;-55
2021/09/02 10:56:58;;;;;;;18.10;14.73;;;21.40;92.30;;;;;;5092500;28;20394;-55
2021/09/02 10:59:46;;;;;;;17.67;14.43;;;21.60;92.30;;;;;;5082737;28;20114;-52
2021/09/02 11:02:18;;;;;;;20.33;16.80;;;21.30;92.50;;;;;;5091303;28;20109;-53
2021/09/02 11:04:45;;;;;;;22.60;18.13;;;20.80;93.70;;;;;;5093166;28;20040;-54
2021/09/02 11:07:12;;;;;;;22.25;18.85;;;20.70;93.70;;;;;;5096514;28;20507;-56
2021/09/02 11:09:41;;;;;;;21.98;18.15;;;20.70;94.00;;;;;;5095024;28;20023;-56
2021/09/02 11:12:11;;;;;;;26.13;19.15;;;20.60;94.20;;;;;;5094228;28;20127;-57
2021/09/02 11:14:45;;;;;;;32.15;18.30;;;20.90;94.40;;;;;;5094136;28;20131;-53
2021/09/02 11:17:11;;;;;;;24.10;18.20;;;21.20;93.70;;;;;;5093116;28;20038;-54
2021/09/02 11:19:40;;;;;;;27.80;19.88;;;21.20;93.80;;;;;;5093510;28;20036;-53
2021/09/02 11:22:06;;;;;;;22.35;17.80;;;21.40;92.90;;;;;;5092827;28;20118;-58
2021/09/02 11:24:38;;;;;;;25.20;18.35;;;21.50;92.50;;;;;;5094007;28;20028;-55
2021/09/02 11:27:04;;;;;;;24.38;18.30;;;21.40;92.50;;;;;;5093964;28;20035;-55
2021/09/02 11:29:29;;;;;;;21.73;19.52;;;21.30;93.40;;;;;;5079802;28;20040;-53
2021/09/02 11:32:24;;;;;;;28.83;19.35;;;21.20;93.20;;;;;;5086761;28;20047;-56
2021/09/02 11:35:01;;;;;;;23.20;19.30;;;21.10;93.40;;;;;;5090955;28;20055;-54
2021/09/02 11:37:42;;;;;;;25.85;19.73;;;20.90;93.60;;;;;;5093289;28;20032;-53
2021/09/02 11:40:19;;;;;;;23.15;19.50;;;21.00;93.50;;;;;;5092697;28;20031;-55
2021/09/02 11:42:44;;;;;;;23.27;18.20;;;20.90;93.20;;;;;;5092541;28;20040;-52
2021/09/02 11:45:10;;;;;;;22.42;18.35;;;21.10;93.20;;;;;;5092660;28;20053;-55
2021/09/02 11:47:37;;;;;;;21.58;17.60;;;21.20;92.90;;;;;;5088257;28;20032;-57
2021/09/02 11:50:05;;;;;;;20.50;15.98;;;21.20;93.00;;;;;;5087539;28;20551;-52
2021/09/02 11:52:42;;;;;;;20.45;16.10;;;21.40;92.90;;;;;;5090117;28;20036;-53
2021/09/02 11:55:27;;;;;;;21.52;15.45;;;21.40;92.30;;;;;;5090466;28;20394;-56
2021/09/02 11:58:04;;;;;;;18.88;15.30;;;21.50;92.70;;;;;;5072981;28;20438;-52
2021/09/02 12:00:31;;;;;;;23.77;16.42;;;21.60;92.00;;;;;;5085557;28;20094;-55
2021/09/02 12:02:59;;;;;;;20.98;16.10;;;21.60;92.50;;;;;;5071721;28;20039;-54
2021/09/02 12:05:27;;;;;;;19.27;15.07;;;21.50;92.60;;;;;;5071920;28;20036;-54
2021/09/02 12:07:56;;;;;;;21.55;15.20;;;21.50;92.50;;;;;;5088868;28;20020;-54
2021/09/02 12:10:22;;;;;;;22.55;15.95;;;21.40;92.40;;;;;;5092215;28;20052;-52
2021/09/02 12:12:48;;;;;;;25.73;17.27;;;21.40;92.40;;;;;;5092298;28;20097;-53
2021/09/02 12:15:29;;;;;;;21.55;16.10;;;21.50;92.00;;;;;;5092157;28;20036;-54
2021/09/02 12:18:09;;;;;;;22.95;14.40;;;21.50;91.70;;;;;;5092306;28;20039;-53
2021/09/02 12:20:37;;;;;;;17.95;13.82;;;21.50;92.00;;;;;;5070570;28;20033;-55
2021/09/02 12:23:22;;;;;;;18.10;13.10;;;21.80;92.00;;;;;;5089542;28;20051;-56
2021/09/02 12:26:02;;;;;;;16.75;13.52;;;22.10;91.70;;;;;;5091363;28;20062;-53
2021/09/02 12:28:38;;;;;;;18.40;14.10;;;22.20;90.80;;;;;;5092139;28;20028;-56
2021/09/02 12:31:13;;;;;;;20.33;13.27;;;22.30;90.40;;;;;;5074138;28;20024;-53
2021/09/02 12:34:00;;;;;;;20.05;14.02;;;22.40;90.20;;;;;;5091686;28;20511;-56